Flight Track Log - Related Links

Times and Time Zones

All times are in EDT time to prevent confusion due to time zone crossing. See the AAY655 flight status page for this flight to view local times or setup timezone preferences in your user account.

Time Position Orientation Groundspeed Altitude Reporting Facility
EDT Latitude Longitude Course Direction KTS MPH feet Rate Location/Type
Sat 07:31:16 PM 43.1167 -78.9667 208° Southwest 155 178 1,500  Level Buffalo TRACON
Sat 07:32:22 PM 43.0678 -79.0019 208° Southwest 185 213 3,700 2,693 Climbing Cleveland Center
Sat 07:33:23 PM 42.9925 -79.0058 182° South 254 292 7,200 3,000 Climbing Cleveland Center
Sat 07:34:24 PM 42.9200 -79.0158 186° South 267 307 9,800 2,410 Climbing Cleveland Center
Sat 07:35:25 PM 42.8386 -79.0300 187° South 283 326 12,100 1,918 Climbing Cleveland Center
Sat 07:36:26 PM 42.7378 -79.0458 187° South 365 420 13,700 2,066 Climbing Cleveland Center
Sat 07:37:27 PM 42.6294 -79.0589 185° South 388 447 16,300 2,410 Climbing Cleveland Center
Sat 07:38:28 PM 42.5181 -79.0739 186° South 402 463 18,600 2,115 Climbing Cleveland Center
Sat 07:39:29 PM 42.3961 -79.0950 187° South 420 483 20,600 2,066 Climbing Cleveland Center
Sat 07:40:30 PM 42.2769 -79.1192 189° South 435 501 22,800 2,115 Climbing Cleveland Center
Sat 07:41:31 PM 42.1553 -79.1411 188° South 434 499 24,900 2,115 Climbing Cleveland Center
Sat 07:42:32 PM 42.0392 -79.1617 187° South 435 501 27,100 2,262 Climbing Cleveland Center
Sat 07:43:33 PM 41.9094 -79.1858 188° South 423 487 29,500 1,770 Climbing Cleveland Center
Sat 07:44:34 PM 41.7922 -79.2058 187° South 414 476 30,700 1,180 Climbing Cleveland Center
Sat 07:45:35 PM 41.6772 -79.2253 187° South 416 479 31,900 639 Climbing Cleveland Center
Sat 07:46:36 PM 41.5636 -79.2478 188° South 410 472 32,000 49 Climbing Cleveland Center
Sat 07:47:37 PM 41.4506 -79.2681 188° South 412 474 32,000  Level Cleveland Center
Sat 07:48:38 PM 41.3500 -79.2858 188° South 413 475 32,000  Level Cleveland Center
Sat 07:49:39 PM 41.2119 -79.3106 188° South 415 478 32,000  Level Cleveland Center
Sat 07:50:40 PM 41.0969 -79.3317 188° South 416 479 32,000  Level Cleveland Center
Sat 07:51:41 PM 40.9817 -79.3511 187° South 416 479 32,000  Level Cleveland Center
Sat 07:52:42 PM 40.8664 -79.3714 188° South 417 480 32,000 -49 Level Cleveland Center
Sat 07:53:43 PM 40.7508 -79.3914 187° South 417 480 31,900  Descending Cleveland Center
Sat 07:54:44 PM 40.6372 -79.4119 188° South 416 479 32,000 49 Climbing Cleveland Center
Sat 07:55:45 PM 40.5219 -79.4314 187° South 416 479 32,000  Level Cleveland Center
Sat 07:56:46 PM 40.4072 -79.4511 187° South 415 478 32,000  Level Cleveland Center
Sat 07:57:47 PM 40.2903 -79.4717 188° South 418 481 32,000  Level Cleveland Center
Sat 07:58:48 PM 40.1736 -79.4917 187° South 420 483 32,000  Level Cleveland Center
Sat 07:59:49 PM 40.0564 -79.5103 187° South 422 486 32,000  Level Cleveland Center
Sat 08:00:50 PM 39.9372 -79.5325 188° South 426 490 32,000  Level Cleveland Center
Sat 08:01:51 PM 39.8178 -79.5525 187° South 428 493 32,000  Level Cleveland Center
Sat 08:02:52 PM 39.6992 -79.5692 186° South 428 493 32,000  Level Cleveland Center
Sat 08:03:35 PM 39.5994 -79.5911 190° South 437 503 32,000 -58 Level Washington Center
Sat 08:04:36 PM 39.4800 -79.6114 187° South 437 503 31,900  Descending Washington Center
Sat 08:05:37 PM 39.3583 -79.6342 188° South 437 503 32,000 50 Climbing Washington Center
Sat 08:06:35 PM 39.2411 -79.6489 186° South 437 503 32,000 254 Level Washington Center
Sat 08:07:35 PM 39.1194 -79.6717 188° South 437 503 32,500 446 Climbing Washington Center
Sat 08:08:36 PM 39.0081 -79.6950 189° South 447 514 32,900 443 Climbing Washington Center
Sat 08:09:37 PM 38.8864 -79.7147 187° South 452 520 33,400 504 Climbing Washington Center
Sat 08:10:35 PM 38.7522 -79.7364 187° South 447 514 33,900 254 Climbing Washington Center
Sat 08:11:35 PM 38.6308 -79.7564 187° South 447 514 33,900  Level Washington Center
Sat 08:12:37 PM 38.5111 -79.7761 187° South 447 514 33,900 49 Level Washington Center
Sat 08:13:37 PM 38.3875 -79.7956 187° South 447 514 34,000  Climbing Washington Center
Sat 08:14:37 PM 38.2806 -79.8133 187° South 447 514 33,900 -50 Descending Washington Center
Sat 08:15:36 PM 38.1567 -79.8328 187° South 447 514 33,900 50 Level Washington Center
Sat 08:16:36 PM 38.0350 -79.8550 188° South 447 514 34,000 50 Climbing Washington Center
Sat 08:17:37 PM 37.9008 -79.8736 186° South 447 514 34,000  Level Washington Center
Sat 08:18:36 PM 37.7792 -79.8956 188° South 447 514 34,000  Level Washington Center
Sat 08:19:37 PM 37.6572 -79.9150 187° South 447 514 34,000  Level Washington Center
Sat 08:20:36 PM 37.5461 -79.9322 187° South 447 514 34,000  Level Washington Center
Sat 08:21:36 PM 37.4225 -79.9486 186° South 447 514 34,000  Level Washington Center
Sat 08:22:37 PM 37.2986 -79.9703 188° South 447 514 34,000 -51 Level Washington Center
Sat 08:23:34 PM 37.1603 -79.9883 186° South 447 514 33,900 -50 Descending Washington Center
Sat 08:24:36 PM 37.0383 -80.0100 188° South 447 514 33,900  Level Washington Center
Sat 08:26:34 PM 36.7878 -80.0444 186° South 442 509 33,900 34 Level Atlanta Center
Sat 08:27:34 PM 36.6781 -80.0631 188° South 448 516 34,000 50 Climbing Atlanta Center
Sat 08:28:34 PM 36.5533 -80.0822 187° South 448 516 34,000  Level Atlanta Center
Sat 08:29:34 PM 36.4289 -80.0986 186° South 453 521 34,000  Level Atlanta Center
Sat 08:30:34 PM 36.3106 -80.1172 187° South 448 516 34,000  Level Atlanta Center
Sat 08:31:34 PM 36.1736 -80.1369 187° South 448 516 34,000  Level Atlanta Center
Sat 08:32:34 PM 36.0492 -80.1583 188° South 443 510 34,000  Level Atlanta Center
Sat 08:33:34 PM 35.9264 -80.1717 185° South 443 510 34,000  Level Atlanta Center
Sat 08:34:34 PM 35.8186 -80.1922 189° South 443 510 34,000  Level Atlanta Center
Sat 08:35:34 PM 35.6961 -80.2108 187° South 443 510 34,000  Level Atlanta Center
Sat 08:36:34 PM 35.5633 -80.2322 187° South 443 510 34,000  Level Atlanta Center
Sat 08:37:34 PM 35.4386 -80.2533 188° South 443 510 34,000  Level Atlanta Center
Sat 08:38:34 PM 35.3161 -80.2717 187° South 443 510 34,000  Level Atlanta Center
Sat 08:40:39 PM 35.0639 -80.3211 189° South 444 511 34,000  Level Jacksonville Center
Sat 08:41:39 PM 34.9458 -80.3575 194° South 443 510 34,000  Level Jacksonville Center
Sat 08:42:39 PM 34.8381 -80.3911 194° South 449 517 34,000  Level Jacksonville Center
Sat 08:43:39 PM 34.7094 -80.4328 195° South 435 501 34,000  Level Jacksonville Center
Sat 08:44:39 PM 34.5872 -80.4689 194° South 435 501 34,000 -50 Level Jacksonville Center
Sat 08:45:39 PM 34.4689 -80.5075 195° South 440 506 33,900 -50 Descending Jacksonville Center
Sat 08:46:39 PM 34.3486 -80.5411 193° South 440 506 33,900  Level Jacksonville Center
Sat 08:47:39 PM 34.2283 -80.5794 195° South 445 512 33,900  Level Jacksonville Center
Sat 08:48:39 PM 34.1058 -80.6178 195° South 450 518 33,900  Level Jacksonville Center
Sat 08:49:39 PM 33.9856 -80.6561 195° South 450 518 33,900  Level Jacksonville Center
Sat 08:50:39 PM 33.8611 -80.6917 193° South 450 518 33,900 50 Level Jacksonville Center
Sat 08:51:39 PM 33.7428 -80.7272 194° South 450 518 34,000  Climbing Jacksonville Center
Sat 08:52:39 PM 33.6203 -80.7650 194° South 450 518 33,900 -50 Descending Jacksonville Center
Sat 08:53:39 PM 33.4997 -80.8003 194° South 450 518 33,900  Level Jacksonville Center
Sat 08:54:39 PM 33.3772 -80.8381 194° South 450 518 33,900  Level Jacksonville Center
Sat 08:55:39 PM 33.2547 -80.8756 194° South 450 518 33,900  Level Jacksonville Center
Sat 08:56:39 PM 33.1278 -80.8983 189° South 450 518 33,900 50 Level Jacksonville Center
Sat 08:57:39 PM 33.0067 -80.9011 181° South 471 542 34,000  Climbing Jacksonville Center
Sat 08:58:39 PM 32.8775 -80.9064 182° South 471 542 33,900 -50 Descending Jacksonville Center
Sat 08:59:39 PM 32.7461 -80.9142 183° South 476 548 33,900  Level Jacksonville Center
Sat 09:00:39 PM 32.6147 -80.9219 183° South 476 548 33,900  Level Jacksonville Center
Sat 09:01:39 PM 32.4875 -80.9297 183° South 476 548 33,900 50 Level Jacksonville Center
Sat 09:02:39 PM 32.3456 -80.9400 184° South 466 536 34,000 50 Climbing Jacksonville Center
Sat 09:03:39 PM 32.2289 -80.9475 183° South 459 528 34,000  Level Jacksonville Center
Sat 09:04:39 PM 32.0892 -80.9553 183° South 459 528 34,000  Level Jacksonville Center
Sat 09:05:39 PM 31.9556 -80.9631 183° South 469 540 34,000  Level Jacksonville Center
Sat 09:06:39 PM 31.8389 -80.9706 183° South 469 540 34,000  Level Jacksonville Center
Sat 09:07:39 PM 31.6947 -80.9783 183° South 474 545 34,000  Level Jacksonville Center
Sat 09:08:39 PM 31.5758 -80.9856 183° South 474 545 34,000  Level Jacksonville Center
Sat 09:09:39 PM 31.4342 -80.9908 182° South 474 545 34,000 -50 Level Jacksonville Center
Sat 09:10:39 PM 31.3131 -80.9983 183° South 479 551 33,900 -50 Descending Jacksonville Center
Sat 09:11:39 PM 31.1817 -81.0083 184° South 479 551 33,900 -400 Level Jacksonville Center
Sat 09:12:39 PM 31.0461 -81.0133 182° South 479 551 33,100 -900 Descending Jacksonville Center
Sat 09:13:39 PM 30.9147 -81.0233 184° South 479 551 32,100 -1,000 Descending Jacksonville Center
Sat 09:14:39 PM 30.7811 -81.0306 183° South 479 551 31,100 -1,000 Descending Jacksonville Center
Sat 09:15:39 PM 30.6519 -81.0381 183° South 474 545 30,100 -1,000 Descending Jacksonville Center
Sat 09:16:39 PM 30.5203 -81.0456 183° South 474 545 29,100 -950 Descending Jacksonville Center
Sat 09:17:39 PM 30.3847 -81.0528 183° South 480 552 28,200 -1,000 Descending Jacksonville Center
Sat 09:18:39 PM 30.2556 -81.0603 183° South 480 552 27,100 -1,400 Descending Jacksonville Center
Sat 09:19:39 PM 30.1219 -81.0700 184° South 480 552 25,400 -2,357 Descending Jacksonville Center
Sat 09:20:31 PM 29.9989 -81.0794 184° South 465 535 22,700 -2,900 Descending Jacksonville Center
Sat 09:20:39 PM 29.9947 -81.0769 153° Southeast 475 547 22,500 -3,049 Descending Jacksonville Center
Sat 09:21:32 PM 29.8739 -81.0867 184° South 450 518 19,600 -2,900 Descending Jacksonville Center
Sat 09:21:39 PM 29.8675 -81.0842 161° South 475 547 19,600 -2,597 Level Jacksonville Center
Sat 09:22:39 PM 29.7464 -81.0914 183° South 453 521 16,700 -3,105 Descending Jacksonville Center
Sat 09:23:33 PM 29.6256 -81.1006 184° South 420 483 13,700 -2,900 Descending Jacksonville Center
Sat 09:23:39 PM 29.6297 -81.0983 25° Northeast 442 509 13,800 -1,672 Climbing Jacksonville Center
Sat 09:24:34 PM 29.5150 -81.1050 183° South 397 457 12,000 -1,800 Descending Jacksonville Center
Sat 09:24:39 PM 29.5192 -81.1075 332° Northwest 424 488 12,000  Level Jacksonville Center
Sat 09:25:39 PM 29.4128 -81.1047 179° South 400 460 12,000 -150 Level Jacksonville Center
Sat 09:26:39 PM 29.3083 -81.1161 185° South 387 445 11,700 -750 Descending Jacksonville Center
Sat 09:27:39 PM 29.2147 -81.1367 191° South 372 428 10,500 -1,500 Descending Jacksonville Center
Sat 09:28:39 PM 29.1356 -81.1500 188° South 328 377 8,700 -2,000 Descending Jacksonville Center
Sat 09:29:39 PM 29.0564 -81.1608 187° South 303 349 6,500 -1,800 Descending Jacksonville Center
Sat 09:30:39 PM 28.9850 -81.1267 157° South 280 322 5,100 -1,350 Descending Jacksonville Center
Sat 09:31:39 PM 28.9097 -81.1183 174° South 275 316 3,800 -1,286 Descending Jacksonville Center
Sat 09:32:45 PM 28.8333 -81.1167 179° South 207 238 2,400 -1,143 Descending Orlando TRACON
Sat 09:33:45 PM 28.7833 -81.1500 210° Southwest 171 197 1,400 -895 Descending Orlando TRACON
Sat 09:34:39 PM 28.7833 -81.1833 270° West 118 136 700 -778 Descending Orlando TRACON
Sat 09:37:00 PM 28.7667 -81.2333 319° Northwest  Level FlightAware Approximate
Sat 09:44:00 PM 28.7770 -81.2349 319° Northwest  Level Estimated
Sat 09:45:00 PM 28.7770 -81.2349 319° Northwest  Level Estimated
Sat 09:46:00 PM 28.7770 -81.2349 319° Northwest  Level Estimated

Login

Don't have an account? Register now (free) for customized features, flight alerts, and more!